Time;durP1;ratioP1;P1;durP2;ratioP2;P2;SDS_P1;SDS_P2;PMS_P1;PMS_P2;Temp;Humidity;BMP_temperature;BMP_pressure;BME280_temperature;BME280_humidity;BME280_pressure;Samples;Min_cycle;Max_cycle;Signal;HPM_P1;HPM_P2
2022/05/21 00:00:45;;;;;;;21.17;11.97;;;;;;;17.13;100.00;101791.09;5033157;28;20312;-54
2022/05/21 00:03:12;;;;;;;24.57;13.30;;;;;;;17.19;100.00;101786.69;5020670;28;20280;-53
2022/05/21 00:05:38;;;;;;;22.65;12.95;;;;;;;17.48;100.00;101796.09;5026849;28;20296;-54
2022/05/21 00:08:08;;;;;;;32.97;14.63;;;;;;;17.92;100.00;101800.75;5033085;28;20377;-53
2022/05/21 00:10:34;;;;;;;21.30;12.40;;;;;;;17.85;100.00;101795.41;5024893;28;20268;-53
2022/05/21 00:13:01;;;;;;;21.02;12.32;;;;;;;17.54;100.00;101794.41;5026640;28;21003;-51
2022/05/21 00:15:27;;;;;;;;;;;;;;;17.55;100.00;101790.63;5015876;28;20060;-55
2022/05/21 00:17:53;;;;;;;24.83;13.57;;;;;;;17.88;100.00;101794.94;5032798;28;19958;-52
2022/05/21 00:23:16;;;;;;;21.33;12.20;;;;;;;18.16;100.00;101792.88;5032566;28;20040;-50
2022/05/21 00:25:42;;;;;;;21.80;12.93;;;;;;;17.92;100.00;101796.16;5032642;28;20343;-54
2022/05/21 00:28:09;;;;;;;20.90;13.30;;;;;;;18.09;100.00;101795.63;5021895;28;20290;-53
2022/05/21 00:30:35;;;;;;;25.45;14.57;;;;;;;18.18;100.00;101794.28;5024245;28;20283;-54
2022/05/21 00:33:01;;;;;;;36.33;15.35;;;;;;;18.42;100.00;101788.22;5032759;28;20054;-52
2022/05/21 00:35:28;;;;;;;22.80;13.18;;;;;;;17.94;100.00;101790.53;5055730;28;20030;-51
2022/05/21 00:37:54;;;;;;;25.05;13.85;;;;;;;17.62;100.00;101790.56;5020066;28;20045;-53
2022/05/21 00:40:21;;;;;;;26.45;14.63;;;;;;;17.99;100.00;101793.41;5032531;28;20038;-50
2022/05/21 00:42:47;;;;;;;27.57;15.03;;;;;;;17.86;100.00;101796.22;5032348;28;20034;-55
2022/05/21 00:45:14;;;;;;;22.63;12.98;;;;;;;17.87;100.00;101782.47;5022266;28;20331;-53
2022/05/21 00:47:40;;;;;;;29.77;14.70;;;;;;;17.72;100.00;101787.38;5032201;28;20068;-51
2022/05/21 00:50:08;;;;;;;34.42;17.63;;;;;;;18.40;100.00;101784.91;5032112;28;20256;-50
2022/05/21 00:52:35;;;;;;;24.40;13.60;;;;;;;18.16;100.00;101790.16;5018336;28;20034;-50
2022/05/21 00:55:07;;;;;;;20.47;12.20;;;;;;;18.06;100.00;101796.09;5021986;28;20276;-50
2022/05/21 00:59:47;;;;;;;24.70;12.03;;;;;;;18.53;100.00;101784.75;5029085;28;20320;-53
2022/05/21 01:00:41;;;;;;;20.53;11.63;;;;;;;18.11;100.00;101787.31;5032135;28;20272;-55
2022/05/21 01:03:06;;;;;;;27.03;11.67;;;;;;;18.74;100.00;101786.19;5029769;28;20305;-52
2022/05/21 01:05:32;;;;;;;25.42;11.95;;;;;;;18.37;100.00;101780.78;5014550;28;20303;-52
2022/05/21 01:07:59;;;;;;;20.67;10.75;;;;;;;18.51;100.00;101792.28;5031927;28;20101;-50
2022/05/21 01:10:29;;;;;;;25.20;11.90;;;;;;;18.84;100.00;101773.97;5032027;28;20038;-54
2022/05/21 01:12:57;;;;;;;23.73;10.90;;;;;;;18.62;100.00;101778.00;5017922;28;20282;-52
2022/05/21 01:15:34;;;;;;;22.67;12.17;;;;;;;18.82;100.00;101784.22;5026687;28;20267;-52
2022/05/21 01:18:00;;;;;;;28.23;11.47;;;;;;;17.64;100.00;101777.66;5031390;28;20275;-52
2022/05/21 01:20:43;;;;;;;18.00;10.38;;;;;;;17.43;100.00;101792.38;5031604;28;20287;-51
2022/05/21 01:23:09;;;;;;;23.57;11.57;;;;;;;17.74;100.00;101774.44;5031596;28;20072;-53
2022/05/21 01:25:38;;;;;;;25.98;11.02;;;;;;;17.77;100.00;101780.25;5031802;28;20339;-52
2022/05/21 01:28:07;;;;;;;25.50;13.30;;;;;;;17.64;100.00;101780.34;5031781;28;20062;-54
2022/05/21 01:30:42;;;;;;;23.30;12.63;;;;;;;17.72;100.00;101776.56;5031653;28;20286;-51
2022/05/21 01:33:10;;;;;;;22.73;11.53;;;;;;;18.29;100.00;101778.38;5031865;28;20279;-52
2022/05/21 01:35:37;;;;;;;23.97;11.73;;;;;;;17.95;100.00;101788.63;5025767;28;20314;-51
2022/05/21 01:38:04;;;;;;;26.93;12.37;;;;;;;18.81;100.00;101775.28;5017758;28;20276;-52
2022/05/21 01:40:30;;;;;;;21.07;12.17;;;;;;;19.16;100.00;101781.94;5031648;28;20359;-54
2022/05/21 01:45:41;;;;;;;25.20;11.93;;;;;;;18.41;100.00;101783.88;5019393;28;20068;-53
2022/05/21 01:48:07;;;;;;;23.13;11.48;;;;;;;18.43;100.00;101788.00;5019510;28;20299;-53
2022/05/21 01:50:34;;;;;;;26.75;12.43;;;;;;;18.85;100.00;101784.59;4996543;28;20065;-50
2022/05/21 01:53:00;;;;;;;25.33;12.50;;;;;;;18.17;100.00;101792.63;5023390;28;20053;-55
2022/05/21 01:55:25;;;;;;;28.47;13.17;;;;;;;18.65;100.00;101787.53;5031435;28;20293;-53
2022/05/21 01:57:51;;;;;;;25.02;13.30;;;;;;;18.44;100.00;101778.81;5014945;28;20030;-52
2022/05/21 02:00:19;;;;;;;28.50;12.95;;;;;;;18.31;100.00;101784.38;5030879;28;20038;-52
2022/05/21 02:02:44;;;;;;;26.07;11.97;;;;;;;18.45;100.00;101780.50;5031477;28;20052;-49
2022/05/21 02:05:10;;;;;;;29.17;12.00;;;;;;;18.55;100.00;101779.13;5031248;28;20279;-53
2022/05/21 02:07:36;;;;;;;28.33;12.00;;;;;;;18.48;100.00;101771.91;5031714;28;20034;-53
2022/05/21 02:10:04;;;;;;;28.55;12.30;;;;;;;18.47;100.00;101780.25;5031500;28;20069;-52
2022/05/21 02:12:30;;;;;;;27.07;12.73;;;;;;;18.39;100.00;101777.84;5018590;28;20056;-50
2022/05/21 02:14:56;;;;;;;24.40;10.93;;;;;;;18.42;100.00;101775.50;5022510;28;20268;-52
2022/05/21 02:17:22;;;;;;;;;;;;;;;18.15;100.00;101780.38;5013061;28;20045;-55
2022/05/21 02:19:47;;;;;;;24.63;10.90;;;;;;;18.56;100.00;101772.66;5016222;28;19948;-55
2022/05/21 02:22:14;;;;;;;23.30;11.85;;;;;;;18.28;100.00;101763.19;5031143;28;20038;-52
2022/05/21 02:24:40;;;;;;;32.03;13.30;;;;;;;17.49;100.00;101780.69;5031172;28;20046;-56
2022/05/21 02:27:14;;;;;;;24.73;11.77;;;;;;;17.96;100.00;101777.59;5029027;28;20038;-52
2022/05/21 02:29:40;;;;;;;22.97;12.13;;;;;;;17.92;100.00;101777.22;5015379;28;20042;-51
2022/05/21 02:32:06;;;;;;;;;;;;;;;18.12;100.00;101783.53;5021631;28;20319;-56
2022/05/21 02:34:32;;;;;;;22.00;12.27;;;;;;;17.81;100.00;101790.63;5022110;28;19918;-56
2022/05/21 02:39:42;;;;;;;24.50;12.23;;;;;;;17.60;100.00;101788.09;5024336;28;20282;-54
2022/05/21 02:42:43;;;;;;;27.08;14.32;;;;;;;17.96;100.00;101784.88;5030294;28;20297;-54
2022/05/21 02:44:55;;;;;;;35.27;14.03;;;;;;;17.97;100.00;101783.84;5016473;28;20060;-55
2022/05/21 02:47:20;;;;;;;29.50;14.32;;;;;;;18.08;100.00;101785.00;5012517;28;20292;-56
2022/05/21 02:49:45;;;;;;;28.47;13.27;;;;;;;17.90;100.00;101786.63;5023666;28;20046;-55
2022/05/21 02:52:11;;;;;;;26.27;14.60;;;;;;;17.80;100.00;101776.28;5012186;28;20068;-53
2022/05/21 02:54:36;;;;;;;28.00;13.63;;;;;;;18.21;100.00;101784.91;5024839;28;20080;-55
2022/05/21 02:57:02;;;;;;;26.87;13.60;;;;;;;19.48;100.00;101784.38;5013934;28;20087;-53
2022/05/21 02:59:31;;;;;;;37.55;15.25;;;;;;;18.66;100.00;101783.78;5030515;28;20064;-53
2022/05/21 03:01:56;;;;;;;32.03;13.87;;;;;;;18.47;100.00;101777.53;5024753;28;20046;-56
2022/05/21 03:04:22;;;;;;;36.70;13.43;;;;;;;18.03;100.00;101780.28;5017566;28;20294;-55
2022/05/21 03:06:47;;;;;;;32.92;14.32;;;;;;;18.44;100.00;101772.59;5030795;28;20037;-55
2022/05/21 03:11:59;;;;;;;29.63;12.53;;;;;;;18.23;100.00;101792.81;5022073;28;20026;-55
2022/05/21 03:14:25;;;;;;;25.53;13.23;;;;;;;18.41;100.00;101784.69;5022326;28;20343;-56
2022/05/21 03:16:56;;;;;;;35.90;14.80;;;;;;;18.48;100.00;101780.03;5033866;28;20082;-56
2022/05/21 03:19:22;;;;;;;26.03;13.57;;;;;;;18.84;100.00;101776.69;5028687;28;20275;-54
2022/05/21 03:21:47;;;;;;;34.03;13.40;;;;;;;18.81;100.00;101777.16;5033793;28;20313;-55
2022/05/21 03:24:13;;;;;;;31.10;12.83;;;;;;;19.09;100.00;101786.59;5033864;28;20038;-55
2022/05/21 03:26:39;;;;;;;33.35;14.50;;;;;;;18.84;100.00;101784.81;5033949;28;20271;-54
2022/05/21 03:29:04;;;;;;;34.70;16.42;;;;;;;19.45;100.00;101784.84;5027848;28;20088;-56
2022/05/21 03:31:30;;;;;;;32.33;13.73;;;;;;;19.34;100.00;101781.84;5033687;28;20068;-55
2022/05/21 03:33:56;;;;;;;27.15;13.63;;;;;;;19.38;100.00;101779.53;5033802;28;20038;-53
2022/05/21 03:36:21;;;;;;;30.37;12.80;;;;;;;19.60;100.00;101784.41;5022019;28;20050;-54
2022/05/21 03:38:48;;;;;;;32.28;13.60;;;;;;;18.55;100.00;101784.53;5026509;28;20442;-55
2022/05/21 03:41:14;;;;;;;33.93;13.37;;;;;;;18.65;100.00;101787.53;5033121;28;20046;-56
2022/05/21 03:43:40;;;;;;;;;;;;;;;18.27;100.00;101783.19;5033993;28;20302;-55
2022/05/21 03:46:06;;;;;;;31.57;12.53;;;;;;;19.01;100.00;101782.31;5033740;28;19935;-55
2022/05/21 03:48:31;;;;;;;39.90;13.07;;;;;;;18.18;100.00;101791.56;5033557;28;20044;-56
2022/05/21 03:50:57;;;;;;;36.47;15.35;;;;;;;18.72;100.00;101798.31;5033147;28;20029;-55
2022/05/21 03:53:22;;;;;;;33.75;13.00;;;;;;;18.82;100.00;101798.59;5033276;28;20037;-55
2022/05/21 03:55:48;;;;;;;38.28;14.13;;;;;;;18.53;100.00;101792.88;5026208;28;20176;-52
2022/05/21 03:58:15;;;;;;;36.30;13.48;;;;;;;18.22;100.00;101791.97;5021191;28;20038;-54
2022/05/21 04:00:41;;;;;;;40.43;14.87;;;;;;;18.44;100.00;101794.25;5023769;28;20037;-55
2022/05/21 04:03:07;;;;;;;31.35;12.80;;;;;;;18.52;100.00;101798.53;5032998;28;20283;-54
2022/05/21 04:05:32;;;;;;;33.00;13.60;;;;;;;18.42;100.00;101785.53;5033173;28;20045;-55
2022/05/21 04:07:58;;;;;;;37.30;13.20;;;;;;;19.01;100.00;101804.00;5033210;28;20041;-53
2022/05/21 04:10:23;;;;;;;42.83;12.87;;;;;;;18.14;100.00;101801.19;5033023;28;20034;-52
2022/05/21 04:12:49;;;;;;;32.50;11.88;;;;;;;18.99;100.00;101804.25;5019831;28;20051;-53
2022/05/21 04:15:15;;;;;;;37.70;12.15;;;;;;;18.43;100.00;101806.94;5032895;28;20038;-53
2022/05/21 04:17:41;;;;;;;36.30;12.07;;;;;;;18.81;100.00;101804.25;5016270;28;20101;-53
2022/05/21 04:20:10;;;;;;;28.25;12.20;;;;;;;18.72;100.00;101807.28;5032951;28;20038;-52
2022/05/21 04:22:36;;;;;;;33.70;11.03;;;;;;;18.69;100.00;101801.47;5032889;28;20037;-55
2022/05/21 04:25:02;;;;;;;40.75;11.65;;;;;;;19.12;100.00;101807.81;5032415;28;20354;-53
2022/05/21 04:27:27;;;;;;;31.45;11.80;;;;;;;18.45;100.00;101813.00;5032846;28;20034;-52
2022/05/21 04:29:54;;;;;;;32.57;10.83;;;;;;;17.60;100.00;101815.16;5032365;28;20034;-54
2022/05/21 04:32:20;;;;;;;35.93;11.70;;;;;;;18.36;100.00;101824.34;5033294;28;20328;-51
2022/05/21 04:34:46;;;;;;;42.03;12.18;;;;;;;18.88;100.00;101813.94;5032642;28;20042;-56
2022/05/21 04:37:12;;;;;;;28.13;9.87;;;;;;;17.93;100.00;101824.06;5014818;28;20067;-52
2022/05/21 04:39:37;;;;;;;32.15;9.50;;;;;;;18.05;100.00;101832.31;5010203;28;20344;-53
2022/05/21 04:42:03;;;;;;;31.48;11.13;;;;;;;17.85;100.00;101835.97;5008227;28;20038;-51
2022/05/21 04:44:31;;;;;;;32.50;9.70;;;;;;;17.67;100.00;101833.19;5025531;28;20147;-52
2022/05/21 04:46:58;;;;;;;42.83;12.37;;;;;;;17.66;100.00;101829.69;5016737;28;20040;-55
2022/05/21 04:49:24;;;;;;;36.70;10.47;;;;;;;17.98;100.00;101842.31;5031524;28;20304;-55
2022/05/21 04:51:50;;;;;;;;;;;;;;;18.05;100.00;101835.03;5026066;28;20272;-55
2022/05/21 04:54:15;;;;;;;37.33;10.53;;;;;;;18.02;100.00;101846.28;5024486;28;19935;-55
2022/05/21 04:56:41;;;;;;;29.20;10.45;;;;;;;17.83;100.00;101842.66;5015972;28;20088;-54
2022/05/21 04:59:11;;;;;;;36.85;9.88;;;;;;;17.86;100.00;101844.91;5020753;28;20034;-55
2022/05/21 05:01:38;;;;;;;42.53;10.80;;;;;;;17.58;100.00;101840.75;5030554;28;20094;-54
2022/05/21 05:04:05;;;;;;;31.93;9.70;;;;;;;17.48;100.00;101854.72;5032527;28;20299;-54
2022/05/21 05:06:31;;;;;;;32.93;9.43;;;;;;;17.72;100.00;101852.28;5019905;28;20346;-56
2022/05/21 05:08:56;;;;;;;32.88;8.73;;;;;;;18.05;100.00;101853.97;5023753;28;20042;-56
2022/05/21 05:11:22;;;;;;;25.67;7.70;;;;;;;17.69;100.00;101858.16;5016816;28;20033;-54
2022/05/21 05:13:47;;;;;;;22.93;8.83;;;;;;;18.06;100.00;101861.03;5025573;28;20038;-56
2022/05/21 05:16:13;;;;;;;33.55;7.80;;;;;;;18.17;100.00;101854.09;5019816;28;20291;-53
2022/05/21 05:18:38;;;;;;;35.43;6.97;;;;;;;18.04;100.00;101860.44;5024528;28;20042;-55
2022/05/21 05:21:03;;;;;;;43.47;8.83;;;;;;;17.85;100.00;101854.91;5028092;28;20091;-55
2022/05/21 05:23:30;;;;;;;27.25;8.05;;;;;;;17.86;100.00;101875.50;5031983;28;20083;-53
2022/05/21 05:25:55;;;;;;;30.23;8.10;;;;;;;17.60;100.00;101869.25;5032284;28;20053;-57
2022/05/21 05:28:23;;;;;;;37.00;9.13;;;;;;;18.42;100.00;101867.56;5031638;28;20478;-54
2022/05/21 05:30:49;;;;;;;26.40;8.83;;;;;;;17.91;100.00;101869.47;5017449;28;20050;-55
2022/05/21 05:33:16;;;;;;;30.05;8.80;;;;;;;18.25;100.00;101872.75;5015368;28;20276;-55
2022/05/21 05:35:41;;;;;;;30.08;7.22;;;;;;;18.44;100.00;101872.78;5018580;28;20046;-53
2022/05/21 05:38:10;;;;;;;30.83;7.93;;;;;;;18.84;100.00;101871.53;5023309;28;20060;-52
2022/05/21 05:40:37;;;;;;;31.17;6.50;;;;;;;18.56;100.00;101876.41;5020397;28;20041;-54
2022/05/21 05:43:03;;;;;;;24.23;6.77;;;;;;;18.41;100.00;101871.34;5022591;28;20341;-54
2022/05/21 05:45:29;;;;;;;19.38;5.93;;;;;;;18.46;100.00;101885.06;5028151;28;20348;-54
2022/05/21 05:47:55;;;;;;;25.75;6.50;;;;;;;18.36;100.00;101873.09;5019482;28;20040;-54
2022/05/21 05:50:21;;;;;;;29.98;6.85;;;;;;;18.64;100.00;101883.41;5023618;28;20050;-54
2022/05/21 05:52:46;;;;;;;33.55;5.75;;;;;;;18.54;100.00;101885.81;5025282;28;20080;-51
2022/05/21 05:55:12;;;;;;;24.20;8.38;;;;;;;18.57;100.00;101885.38;5014493;28;20046;-54
2022/05/21 05:57:39;;;;;;;24.17;5.15;;;;;;;18.33;100.00;101883.28;5012937;28;20035;-51
2022/05/21 06:00:06;;;;;;;22.50;5.50;;;;;;;18.51;100.00;101888.97;5030903;28;20041;-52
2022/05/21 06:05:22;;;;;;;30.47;5.10;;;;;;;18.17;100.00;101890.09;5024107;28;20272;-52
2022/05/21 06:08:00;;;;;;;25.10;5.55;;;;;;;19.10;100.00;101883.16;5014070;28;20280;-51
2022/05/21 06:10:29;;;;;;;21.13;5.37;;;;;;;18.81;100.00;101883.66;5031512;28;20038;-53
2022/05/21 06:12:56;;;;;;;33.30;7.13;;;;;;;19.02;100.00;101874.28;5016213;28;20298;-50
2022/05/21 06:15:23;;;;;;;26.17;6.20;;;;;;;19.24;100.00;101881.09;5025178;28;20272;-50
2022/05/21 06:17:50;;;;;;;20.85;5.43;;;;;;;19.28;100.00;101883.13;5015402;28;20294;-52
2022/05/21 06:20:17;;;;;;;27.93;6.97;;;;;;;19.25;100.00;101882.75;5030966;28;20052;-50
2022/05/21 06:22:45;;;;;;;24.10;5.73;;;;;;;19.23;100.00;101887.56;5028755;28;20282;-54
2022/05/21 06:25:12;;;;;;;26.40;7.28;;;;;;;19.34;100.00;101890.34;5027424;28;20275;-55
2022/05/21 06:27:37;;;;;;;33.53;7.80;;;;;;;19.54;100.00;101896.56;5026288;28;20053;-54
2022/05/21 06:30:04;;;;;;;24.85;5.05;;;;;;;19.58;100.00;101893.16;5020408;28;20288;-53
2022/05/21 06:32:30;;;;;;;18.33;3.85;;;;;;;19.49;100.00;101905.38;5019723;28;20068;-56
2022/05/21 06:34:56;;;;;;;27.35;5.30;;;;;;;19.09;100.00;101914.88;5026748;28;20046;-54
2022/05/21 06:37:21;;;;;;;23.23;5.75;;;;;;;19.01;100.00;101918.69;5030614;28;20032;-48
2022/05/21 06:39:47;;;;;;;26.40;5.60;;;;;;;19.01;100.00;101921.41;5030477;28;20038;-54
2022/05/21 06:42:13;;;;;;;22.77;4.60;;;;;;;19.02;100.00;101923.06;5024732;28;20097;-52
2022/05/21 06:44:42;;;;;;;16.97;4.67;;;;;;;19.01;100.00;101929.53;5030748;28;20056;-54
2022/05/21 06:47:09;;;;;;;26.23;6.80;;;;;;;19.69;100.00;101928.72;5031971;28;20271;-53
2022/05/21 06:49:35;;;;;;;25.73;6.73;;;;;;;19.58;100.00;101935.75;5034275;28;20264;-52
2022/05/21 06:52:01;;;;;;;22.00;6.60;;;;;;;19.79;100.00;101931.69;5034048;28;20296;-52
2022/05/21 06:54:27;;;;;;;14.93;4.63;;;;;;;20.27;100.00;101935.38;5023420;28;20069;-52
2022/05/21 06:56:53;;;;;;;26.57;5.80;;;;;;;20.73;100.00;101941.06;5028289;28;20267;-52
2022/05/21 06:59:19;;;;;;;27.13;5.67;;;;;;;20.21;100.00;101936.31;5034418;28;20267;-53
2022/05/21 07:01:45;;;;;;;26.17;6.50;;;;;;;20.25;100.00;101933.94;5028446;28;20415;-53
2022/05/21 07:04:13;;;;;;;25.10;6.13;;;;;;;20.47;100.00;101942.38;5027276;28;20044;-55
2022/05/21 07:09:25;;;;;;;16.47;4.93;;;;;;;19.77;100.00;101940.06;5034033;28;20049;-53
2022/05/21 07:11:51;;;;;;;25.20;5.63;;;;;;;20.07;100.00;101935.72;5034453;28;20297;-53
2022/05/21 07:14:18;;;;;;;20.05;4.40;;;;;;;19.54;100.00;101945.41;5033930;28;20033;-55
2022/05/21 07:16:44;;;;;;;16.40;5.77;;;;;;;20.34;100.00;101944.22;5033876;28;20049;-52
2022/05/21 07:19:10;;;;;;;18.80;4.90;;;;;;;20.16;100.00;101950.59;5033998;28;20267;-55
2022/05/21 07:21:37;;;;;;;28.10;8.10;;;;;;;20.19;100.00;101958.25;5033865;28;20046;-53
2022/05/21 07:24:03;;;;;;;22.33;5.00;;;;;;;20.66;100.00;101956.66;5025919;28;20041;-53
2022/05/21 07:26:29;;;;;;;19.58;4.82;;;;;;;20.56;100.00;101953.72;5021885;28;20299;-54
2022/05/21 07:28:56;;;;;;;17.65;5.10;;;;;;;20.59;100.00;101955.97;5019263;28;20070;-50
2022/05/21 07:31:22;;;;;;;17.93;5.83;;;;;;;20.48;100.00;101963.03;5027410;28;20080;-51
2022/05/21 07:33:49;;;;;;;18.80;4.83;;;;;;;20.97;100.00;101970.97;5014704;28;20038;-56
2022/05/21 07:36:14;;;;;;;15.93;5.33;;;;;;;20.91;100.00;101969.22;5018704;28;20039;-52
2022/05/21 07:38:39;;;;;;;18.60;5.53;;;;;;;22.31;100.00;101974.63;5033370;28;20022;-55
2022/05/21 07:41:06;;;;;;;24.42;7.15;;;;;;;22.10;100.00;101977.00;5022745;28;20306;-53
2022/05/21 07:43:33;;;;;;;27.77;6.33;;;;;;;21.53;100.00;101978.66;5032633;28;20041;-53
2022/05/21 07:46:02;;;;;;;23.33;5.23;;;;;;;21.72;100.00;101983.97;5027310;28;20038;-55
2022/05/21 07:48:28;;;;;;;22.97;5.43;;;;;;;21.22;100.00;101985.38;5029458;28;20035;-54
2022/05/21 07:50:57;;;;;;;19.13;6.30;;;;;;;21.61;100.00;101981.00;5019030;28;20061;-52
2022/05/21 07:53:25;;;;;;;24.40;4.80;;;;;;;21.77;100.00;101986.78;5025890;28;20106;-54
2022/05/21 07:55:54;;;;;;;20.13;3.73;;;;;;;21.25;100.00;101983.00;5031279;28;20049;-51
2022/05/21 07:58:21;;;;;;;17.50;3.70;;;;;;;20.92;100.00;101987.16;5030174;28;20030;-51
2022/05/21 08:00:48;;;;;;;16.67;5.37;;;;;;;21.20;100.00;101988.31;5013573;28;20066;-52
2022/05/21 08:03:14;;;;;;;17.92;5.38;;;;;;;21.75;100.00;101983.47;5027983;28;20046;-53
2022/05/21 08:05:41;;;;;;;24.52;7.78;;;;;;;21.32;100.00;102000.00;5019021;28;20038;-56
2022/05/21 08:08:08;;;;;;;24.50;7.20;;;;;;;21.54;100.00;101988.47;5032593;28;20057;-55
2022/05/21 08:10:38;;;;;;;22.67;6.37;;;;;;;21.44;100.00;102000.00;5033004;28;20037;-52
2022/05/21 08:13:04;;;;;;;20.00;5.33;;;;;;;21.60;100.00;101997.59;5032991;28;20038;-54
2022/05/21 08:15:29;;;;;;;23.55;5.32;;;;;;;21.47;100.00;102001.41;5029272;28;20049;-56
2022/05/21 08:17:55;;;;;;;15.52;4.03;;;;;;;21.67;100.00;102002.91;5018352;28;20034;-52
2022/05/21 08:20:21;;;;;;;14.77;4.10;;;;;;;22.05;100.00;102002.28;5032671;28;20038;-51
2022/05/21 08:28:16;;;;;;;22.17;5.00;;;;;;;21.43;100.00;102005.66;5032713;28;20034;-55
2022/05/21 08:30:43;;;;;;;;;;;;;;;21.26;100.00;102009.16;5029761;28;20073;-55
2022/05/21 08:33:09;;;;;;;16.38;3.80;;;;;;;21.16;100.00;102004.31;5027435;28;19913;-52
2022/05/21 08:35:38;;;;;;;15.10;4.30;;;;;;;21.18;100.00;102004.06;5032759;28;20049;-51
2022/05/21 08:38:05;;;;;;;16.20;6.97;;;;;;;20.86;100.00;102004.44;5032392;28;20044;-54
2022/05/21 08:40:43;;;;;;;22.47;5.93;;;;;;;21.33;100.00;102007.09;5021315;28;20065;-55
2022/05/21 08:43:29;;;;;;;22.23;6.23;;;;;;;21.54;100.00;102002.09;5029009;28;20037;-56
2022/05/21 08:46:33;;;;;;;20.13;6.47;;;;;;;22.19;100.00;102010.13;5032792;28;20029;-54
2022/05/21 08:49:22;;;;;;;24.37;6.00;;;;;;;21.18;100.00;102006.78;5032611;28;20026;-50
2022/05/21 08:51:57;;;;;;;20.00;5.70;;;;;;;21.46;100.00;102007.91;5013769;28;20031;-51
2022/05/21 08:54:29;;;;;;;14.67;5.93;;;;;;;21.70;100.00;102010.59;5026561;28;20034;-52
2022/05/21 08:56:56;;;;;;;19.10;5.93;;;;;;;22.60;100.00;102016.28;5032447;28;20033;-52
2022/05/21 08:59:30;;;;;;;18.57;5.10;;;;;;;21.97;100.00;102010.00;5032378;28;20037;-55
2022/05/21 09:01:56;;;;;;;19.37;4.53;;;;;;;22.25;100.00;102008.31;5032097;28;20042;-54
2022/05/21 09:04:23;;;;;;;;;;;;;;;22.96;100.00;102007.81;5032914;28;20046;-54
2022/05/21 09:06:54;;;;;;;18.40;4.70;;;;;;;22.58;100.00;101995.81;5032039;28;19920;-52
2022/05/21 09:10:02;;;;;;;10.40;3.83;;;;;;;22.44;100.00;102008.91;5031937;28;20042;-54
2022/05/21 09:12:38;;;;;;;10.30;3.73;;;;;;;22.57;100.00;102005.91;5014918;28;20042;-54
2022/05/21 09:15:04;;;;;;;14.17;3.80;;;;;;;;;;5027747;28;20065;-52
2022/05/21 09:17:30;;;;;;;18.77;3.88;;;;;;;22.72;100.00;102004.47;5014461;28;20295;-52
2022/05/21 09:20:06;;;;;;;18.90;3.60;;;;;;;22.83;100.00;102002.72;5032017;28;20061;-53
2022/05/21 09:22:31;;;;;;;14.97;3.90;;;;;;;22.92;100.00;102001.22;5023470;28;20035;-51
2022/05/21 09:24:59;;;;;;;13.88;3.97;;;;;;;23.30;100.00;102010.50;5027664;28;20058;-53
2022/05/21 09:27:33;;;;;;;18.93;5.03;;;;;;;23.12;100.00;102014.31;5031778;28;20049;-52
2022/05/21 09:30:23;;;;;;;15.60;4.77;;;;;;;24.00;100.00;102020.03;5031749;28;20130;-56
2022/05/21 09:32:52;;;;;;;23.23;4.67;;;;;;;23.26;100.00;102011.25;5031437;28;20101;-53
2022/05/21 09:35:27;;;;;;;11.37;4.10;;;;;;;23.83;100.00;102020.09;5031530;28;20058;-50
2022/05/21 09:37:54;;;;;;;20.97;6.37;;;;;;;23.16;100.00;102022.84;5031562;28;20051;-51
2022/05/21 09:40:25;;;;;;;;;;;;;;;23.48;100.00;102014.81;5032007;28;20034;-52
2022/05/21 09:45:38;;;;;;;15.27;4.33;;;;;;;24.40;100.00;102029.69;5032024;28;20046;-51
2022/05/21 09:48:03;;;;;;;12.87;3.90;;;;;;;23.14;100.00;102025.78;5031714;28;20042;-53
2022/05/21 09:50:29;;;;;;;13.93;4.82;;;;;;;22.81;100.00;102026.69;5031740;28;20127;-53
2022/05/21 09:52:55;;;;;;;;;;;;;;;22.58;100.00;102033.97;5032061;28;20038;-56
2022/05/21 09:55:22;;;;;;;16.47;4.80;;;;;;;23.60;100.00;102033.81;5029869;28;19920;-51
2022/05/21 09:57:48;;;;;;;22.27;5.63;;;;;;;23.47;100.00;102034.16;5014606;28;20041;-55
2022/05/21 10:00:23;;;;;;;17.93;4.77;;;;;;;23.29;100.00;102025.22;5031101;28;20034;-52
2022/05/21 10:02:58;;;;;;;20.50;4.43;;;;;;;23.46;100.00;102036.09;5031245;28;20041;-52
2022/05/21 10:05:29;;;;;;;13.73;4.07;;;;;;;24.14;100.00;102050.53;5031165;28;20056;-54
2022/05/21 10:11:03;;;;;;;17.70;4.63;;;;;;;24.28;100.00;102046.28;5020423;28;20030;-54
2022/05/21 10:13:43;;;;;;;18.10;5.20;;;;;;;24.97;100.00;102032.06;5009700;28;20050;-49
2022/05/21 10:16:34;;;;;;;16.93;6.43;;;;;;;25.11;100.00;102032.41;5025436;28;20102;-52
2022/05/21 10:19:18;;;;;;;20.73;5.33;;;;;;;25.41;100.00;102048.16;5016650;28;20038;-49
2022/05/21 10:21:59;;;;;;;22.83;6.57;;;;;;;25.00;100.00;102048.78;5027554;28;20041;-55
2022/05/21 10:24:52;;;;;;;19.77;5.37;;;;;;;25.23;100.00;102052.19;5031069;28;20037;-50
2022/05/21 10:27:39;;;;;;;15.13;4.23;;;;;;;24.97;100.00;102043.84;5026888;28;20098;-51
2022/05/21 10:30:21;;;;;;;10.65;3.80;;;;;;;24.99;100.00;102041.66;5022887;28;20088;-54
2022/05/21 10:33:12;;;;;;;28.53;9.53;;;;;;;25.46;100.00;102045.44;5025799;28;20134;-56
2022/05/21 10:35:47;;;;;;;11.73;3.17;;;;;;;24.73;100.00;102049.66;5026408;28;20046;-50
2022/05/21 10:38:49;;;;;;;10.40;3.20;;;;;;;25.39;100.00;102044.88;5027918;28;20053;-53
2022/05/21 10:41:24;;;;;;;13.53;3.77;;;;;;;25.62;100.00;102043.63;5030185;28;20045;-53
2022/05/21 10:44:06;;;;;;;18.80;4.33;;;;;;;24.73;100.00;102051.56;5023414;28;20068;-53
2022/05/21 10:46:41;;;;;;;19.27;6.47;;;;;;;24.93;100.00;102050.94;5026403;28;20034;-54
2022/05/21 10:49:23;;;;;;;33.17;10.93;;;;;;;24.76;100.00;102059.28;5029689;28;20037;-57
2022/05/21 10:52:06;;;;;;;16.33;6.10;;;;;;;24.72;100.00;102058.13;5030455;28;20034;-51
2022/05/21 10:54:54;;;;;;;14.67;4.53;;;;;;;26.09;100.00;102057.44;5030773;28;20094;-54
2022/05/21 10:57:25;;;;;;;33.87;15.37;;;;;;;25.81;100.00;102065.03;5021240;28;20094;-54
2022/05/21 11:00:20;;;;;;;48.47;21.83;;;;;;;25.91;100.00;102073.31;5017429;28;20034;-55
2022/05/21 11:03:12;;;;;;;66.97;29.40;;;;;;;27.05;100.00;102062.41;5042109;28;20060;-59
2022/05/21 11:06:07;;;;;;;18.93;5.17;;;;;;;26.15;100.00;102059.09;5020861;28;20038;-55
2022/05/21 11:09:02;;;;;;;23.47;7.10;;;;;;;27.44;100.00;102068.31;5010409;28;20056;-57
2022/05/21 11:11:37;;;;;;;31.13;15.20;;;;;;;26.29;100.00;102067.63;5027025;28;20038;-58
2022/05/21 11:14:17;;;;;;;26.27;9.60;;;;;;;25.21;100.00;102065.31;5027991;28;20041;-57
2022/05/21 11:17:14;;;;;;;21.20;7.93;;;;;;;25.75;100.00;102069.69;5028753;28;20042;-56
2022/05/21 11:19:49;;;;;;;29.25;13.00;;;;;;;25.75;100.00;102069.69;5019088;28;20050;-54
2022/05/21 11:22:22;;;;;;;21.30;7.83;;;;;;;25.72;100.00;102069.41;5026256;28;20035;-57
2022/05/21 11:25:22;;;;;;;20.37;3.73;;;;;;;26.55;100.00;102078.63;5026014;28;20030;-54
2022/05/21 11:28:18;;;;;;;295.30;141.33;;;;;;;26.88;100.00;102067.38;5028362;28;20030;-53
2022/05/21 11:30:44;;;;;;;58.67;25.93;;;;;;;26.42;100.00;102070.94;5028920;28;20030;-56
2022/05/21 11:37:20;;;;;;;21.67;7.70;;;;;;;25.45;100.00;102070.38;5030713;28;20034;-54
2022/05/21 11:39:05;;;;;;;22.37;6.67;;;;;;;26.80;100.00;102074.22;5026843;28;20034;-56
2022/05/21 11:41:55;;;;;;;112.93;36.90;;;;;;;27.37;100.00;102067.78;5031067;28;20045;-57
2022/05/21 11:47:21;;;;;;;;;;;;;;;27.30;96.65;102071.66;5025135;28;20054;-53
2022/05/21 11:49:59;;;;;;;11.80;3.37;;;;;;;28.54;86.55;102072.09;5029827;28;19940;-52
2022/05/21 11:52:31;;;;;;;35.57;15.27;;;;;;;28.16;87.91;102072.66;5025890;28;20056;-56
2022/05/21 11:54:56;;;;;;;29.50;11.57;;;;;;;27.39;98.00;102062.84;5008925;28;20034;-57